createdAt,value
2023-05-16T00:04:05.900Z,8.90
2023-05-16T00:09:07.699Z,8.87
2023-05-16T00:14:09.395Z,8.53
2023-05-16T00:19:11.401Z,7.93
2023-05-16T00:24:13.118Z,7.70
2023-05-16T00:29:14.842Z,7.30
2023-05-16T00:34:16.763Z,7.60
2023-05-16T00:39:18.547Z,7.73
2023-05-16T00:44:20.293Z,8.40
2023-05-16T00:49:22.357Z,8.17
2023-05-16T00:54:26.911Z,9.17
2023-05-16T00:59:28.665Z,8.80
2023-05-16T01:04:32.280Z,8.00
2023-05-16T01:09:34.416Z,7.90
2023-05-16T01:15:05.084Z,7.73
2023-05-16T01:20:15.678Z,7.50
2023-05-16T01:25:39.780Z,7.60
2023-05-16T01:30:41.736Z,8.40
2023-05-16T01:35:56.078Z,8.40
2023-05-16T01:41:24.801Z,8.77
2023-05-16T01:46:30.472Z,8.30
2023-05-16T01:51:35.978Z,9.73
2023-05-16T01:56:38.710Z,8.57
2023-05-16T02:01:40.502Z,9.27
2023-05-16T02:06:43.070Z,9.57
2023-05-16T02:11:44.852Z,9.57
2023-05-16T02:16:46.716Z,9.67
2023-05-16T02:21:48.579Z,9.83
2023-05-16T02:26:50.290Z,10.17
2023-05-16T02:31:51.989Z,9.80
2023-05-16T02:36:53.649Z,10.23
2023-05-16T02:41:55.502Z,9.97
2023-05-16T02:46:57.420Z,11.10
2023-05-16T02:51:59.182Z,11.03
2023-05-16T02:57:01.151Z,11.40
2023-05-16T03:02:03.769Z,11.27
2023-05-16T03:07:05.474Z,12.30
2023-05-16T03:12:07.517Z,11.60
2023-05-16T03:17:09.242Z,12.73
2023-05-16T03:22:10.940Z,12.97
2023-05-16T03:27:12.764Z,17.27
2023-05-16T03:32:14.559Z,17.97
2023-05-16T03:37:16.505Z,19.10
2023-05-16T03:42:18.487Z,19.03
2023-05-16T03:47:20.316Z,19.60
2023-05-16T03:52:22.362Z,20.90
2023-05-16T03:57:24.083Z,20.00
2023-05-16T04:02:26.054Z,21.80
2023-05-16T04:07:28.346Z,21.53
2023-05-16T04:12:30.126Z,22.10
2023-05-16T04:17:31.996Z,22.60
2023-05-16T04:22:33.981Z,20.93
2023-05-16T04:27:35.754Z,20.43
2023-05-16T04:32:37.521Z,20.07
2023-05-16T04:37:39.346Z,19.90
2023-05-16T04:42:41.116Z,21.10
2023-05-16T04:47:42.916Z,20.20
2023-05-16T04:52:44.797Z,20.53
2023-05-16T04:57:46.869Z,21.83
2023-05-16T05:02:48.699Z,22.73
2023-05-16T05:07:50.635Z,22.00
2023-05-16T05:12:52.331Z,20.57
2023-05-16T05:17:54.188Z,22.67
2023-05-16T05:22:56.068Z,23.60
2023-05-16T05:27:57.783Z,23.73
2023-05-16T05:32:59.549Z,25.97
2023-05-16T05:38:01.782Z,26.63
2023-05-16T05:43:03.498Z,26.00
2023-05-16T05:48:05.573Z,27.47
2023-05-16T05:53:07.610Z,29.10
2023-05-16T05:58:09.423Z,29.03
2023-05-16T06:03:11.241Z,29.00
2023-05-16T06:08:13.083Z,27.03
2023-05-16T06:13:14.808Z,28.07
2023-05-16T06:18:16.679Z,28.73
2023-05-16T06:23:21.069Z,27.93
2023-05-16T06:28:24.209Z,28.00
2023-05-16T06:33:26.022Z,27.90
2023-05-16T06:38:27.718Z,29.10
2023-05-16T06:43:29.546Z,26.73
2023-05-16T06:48:31.328Z,27.53
2023-05-16T06:53:33.196Z,27.67
2023-05-16T06:58:34.956Z,26.20
2023-05-16T07:03:37.006Z,25.23
2023-05-16T07:08:38.888Z,24.87
2023-05-16T07:13:40.678Z,23.60
2023-05-16T07:18:42.545Z,23.80
2023-05-16T07:23:44.406Z,25.43
2023-05-16T07:28:46.166Z,24.27
2023-05-16T07:33:49.271Z,24.87
2023-05-16T07:38:51.114Z,24.67
2023-05-16T07:43:53.045Z,25.10
2023-05-16T07:48:54.875Z,26.00
2023-05-16T07:53:56.644Z,27.10
2023-05-16T07:58:58.447Z,25.93
2023-05-16T08:04:00.349Z,26.30
2023-05-16T08:09:02.210Z,26.60
2023-05-16T08:14:04.055Z,25.17
2023-05-16T08:19:06.775Z,25.67
2023-05-16T08:24:11.165Z,25.80
2023-05-16T08:29:12.953Z,25.00
2023-05-16T08:34:14.741Z,25.10
2023-05-16T08:39:16.586Z,25.97
2023-05-16T08:44:21.895Z,25.03
2023-05-16T08:49:27.419Z,24.50
2023-05-16T08:54:29.921Z,23.63
2023-05-16T08:59:32.428Z,23.43
2023-05-16T09:04:34.658Z,23.03
2023-05-16T09:09:36.817Z,23.97
2023-05-16T09:14:38.684Z,24.83
2023-05-16T09:19:44.824Z,23.93
2023-05-16T09:24:46.869Z,24.30
2023-05-16T09:29:52.055Z,23.83
2023-05-16T09:34:56.870Z,24.70
2023-05-16T09:39:58.666Z,25.57
2023-05-16T09:45:02.549Z,25.07
2023-05-16T09:50:04.793Z,25.07
2023-05-16T09:55:10.500Z,26.00
2023-05-16T10:00:13.251Z,24.87
2023-05-16T10:05:16.549Z,24.63
2023-05-16T10:10:18.565Z,24.33
2023-05-16T10:15:22.004Z,24.40
2023-05-16T10:20:24.298Z,24.90
2023-05-16T10:25:29.271Z,23.87
2023-05-16T10:30:34.092Z,24.40
2023-05-16T10:35:36.031Z,22.93
2023-05-16T10:40:39.387Z,24.40
2023-05-16T10:45:44.262Z,23.70
2023-05-16T10:50:46.695Z,22.90
2023-05-16T10:56:00.868Z,23.27
2023-05-16T11:01:26.972Z,21.50
2023-05-16T11:06:32.655Z,19.73
2023-05-16T11:12:02.872Z,19.20
2023-05-16T11:17:14.606Z,21.97
2023-05-16T11:22:19.578Z,22.53
2023-05-16T11:27:31.718Z,24.30
2023-05-16T11:32:41.445Z,26.70
2023-05-16T11:37:44.684Z,23.97
2023-05-16T11:42:48.422Z,22.73
2023-05-16T11:47:50.561Z,17.20
2023-05-16T11:52:54.390Z,13.83
2023-05-16T11:57:58.729Z,14.13
2023-05-16T12:03:05.590Z,12.43
2023-05-16T12:08:10.659Z,12.33
2023-05-16T12:13:12.839Z,12.57
2023-05-16T12:18:16.127Z,9.27
2023-05-16T12:23:18.026Z,7.87
2023-05-16T12:28:19.851Z,7.83
2023-05-16T12:33:21.967Z,7.10
2023-05-16T12:38:26.586Z,7.93
2023-05-16T12:43:28.657Z,7.97
2023-05-16T12:48:35.050Z,7.60
2023-05-16T12:53:44.745Z,7.40
2023-05-16T12:58:52.518Z,7.50
2023-05-16T13:03:54.335Z,7.40
2023-05-16T13:08:56.313Z,7.33
2023-05-16T13:13:58.032Z,6.67
2023-05-16T13:18:59.834Z,6.57
2023-05-16T13:24:01.636Z,5.80
2023-05-16T13:29:03.410Z,5.07
2023-05-16T13:34:05.195Z,4.60
2023-05-16T13:39:06.966Z,3.93
2023-05-16T13:44:08.917Z,4.20
2023-05-16T13:49:10.901Z,4.47
2023-05-16T13:54:12.733Z,4.70
2023-05-16T13:59:20.193Z,4.53
2023-05-16T14:04:29.230Z,5.40
2023-05-16T14:09:31.744Z,5.00
2023-05-16T14:14:36.857Z,5.47
2023-05-16T14:19:38.797Z,5.43
2023-05-16T14:24:40.694Z,5.83
2023-05-16T14:29:42.764Z,5.03
2023-05-16T14:34:44.751Z,5.73
2023-05-16T14:39:48.403Z,5.20
2023-05-16T14:44:50.154Z,4.90
2023-05-16T14:49:53.200Z,4.70
2023-05-16T14:54:54.974Z,4.10
2023-05-16T14:59:56.730Z,4.30
2023-05-16T15:04:58.673Z,4.07
2023-05-16T15:10:00.617Z,4.03
2023-05-16T15:15:02.450Z,4.10
2023-05-16T15:20:09.568Z,4.57
2023-05-16T15:25:11.589Z,4.50
2023-05-16T15:30:14.609Z,4.43
2023-05-16T15:35:16.429Z,4.43
2023-05-16T15:40:20.533Z,4.90
2023-05-16T15:45:25.222Z,4.70
2023-05-16T15:50:27.049Z,4.30
2023-05-16T15:55:29.200Z,5.00
2023-05-16T16:00:31.198Z,5.77
2023-05-16T16:05:33.142Z,5.10
2023-05-16T16:10:35.371Z,5.23
2023-05-16T16:15:38.300Z,5.27
2023-05-16T16:20:40.711Z,5.40
2023-05-16T16:25:42.498Z,5.27
2023-05-16T16:30:46.702Z,5.97
2023-05-16T16:35:48.628Z,5.40
2023-05-16T16:40:50.410Z,5.03
2023-05-16T16:45:52.236Z,5.50
2023-05-16T16:50:54.261Z,5.70
2023-05-16T16:55:56.112Z,5.20
2023-05-16T17:00:58.349Z,6.00
2023-05-16T17:06:00.187Z,5.30
2023-05-16T17:11:05.193Z,5.10
2023-05-16T17:16:08.019Z,5.37
2023-05-16T17:21:12.856Z,5.40
2023-05-16T17:26:14.730Z,5.43
2023-05-16T17:31:16.758Z,5.97
2023-05-16T17:36:19.358Z,5.73
2023-05-16T17:41:22.105Z,7.10
2023-05-16T17:46:23.894Z,7.60
2023-05-16T17:51:26.050Z,6.60
2023-05-16T17:56:27.859Z,5.30
2023-05-16T18:01:29.677Z,5.33
2023-05-16T18:06:31.934Z,5.40
2023-05-16T18:11:35.024Z,5.47
2023-05-16T18:16:36.835Z,4.57
2023-05-16T18:21:39.455Z,5.63
2023-05-16T18:26:42.060Z,5.90
2023-05-16T18:31:46.836Z,3.90
2023-05-16T18:36:49.003Z,4.27
2023-05-16T18:41:50.869Z,4.47
2023-05-16T18:46:52.802Z,4.80
2023-05-16T18:51:55.911Z,5.17
2023-05-16T18:56:57.654Z,5.57
2023-05-16T19:01:59.602Z,5.33
2023-05-16T19:07:03.777Z,4.53
2023-05-16T19:12:06.530Z,4.93
2023-05-16T19:17:08.322Z,5.60
2023-05-16T19:22:10.138Z,5.73
2023-05-16T19:27:12.095Z,5.00
2023-05-16T19:32:13.919Z,4.70
2023-05-16T19:37:15.706Z,4.00
2023-05-16T19:42:20.019Z,4.70
2023-05-16T19:47:22.057Z,5.43
2023-05-16T19:52:26.036Z,4.80
2023-05-16T19:57:28.039Z,5.67
2023-05-16T20:02:29.841Z,5.17
2023-05-16T20:07:31.590Z,6.37
2023-05-16T20:12:33.345Z,6.00
2023-05-16T20:17:35.496Z,6.27
2023-05-16T20:22:41.669Z,5.60
2023-05-16T20:27:43.769Z,5.57
2023-05-16T20:32:45.701Z,5.47
2023-05-16T20:37:47.623Z,5.97
2023-05-16T20:42:49.618Z,5.63
2023-05-16T20:47:51.753Z,5.63
2023-05-16T20:52:53.637Z,7.80
2023-05-16T20:57:55.422Z,6.67
2023-05-16T21:02:57.439Z,10.40
2023-05-16T21:07:59.384Z,9.80
2023-05-16T21:13:01.136Z,7.23
2023-05-16T21:18:03.034Z,7.10
2023-05-16T21:23:04.855Z,6.67
2023-05-16T21:28:06.673Z,6.33
2023-05-16T21:33:08.476Z,6.77
2023-05-16T21:38:10.575Z,6.77
2023-05-16T21:43:12.311Z,6.90
2023-05-16T21:48:14.103Z,5.93
2023-05-16T21:53:17.695Z,6.00
2023-05-16T21:58:19.585Z,5.90
2023-05-16T22:03:21.569Z,6.70
2023-05-16T22:08:23.989Z,5.80
2023-05-16T22:13:25.930Z,5.50
2023-05-16T22:18:27.927Z,5.73
2023-05-16T22:23:29.846Z,5.17
2023-05-16T22:28:31.741Z,5.03
2023-05-16T22:33:33.623Z,5.00
2023-05-16T22:38:35.508Z,4.77
2023-05-16T22:43:37.446Z,4.63
2023-05-16T22:48:39.289Z,5.30
2023-05-16T22:53:41.213Z,5.20
2023-05-16T22:58:43.035Z,5.37
2023-05-16T23:03:44.875Z,5.07
2023-05-16T23:08:46.639Z,4.57
2023-05-16T23:13:48.354Z,5.10
2023-05-16T23:18:50.273Z,4.50
2023-05-16T23:23:52.174Z,5.33
2023-05-16T23:28:53.943Z,5.70
2023-05-16T23:33:56.182Z,5.00
2023-05-16T23:38:57.991Z,4.80
2023-05-16T23:43:59.778Z,5.27
2023-05-16T23:49:01.741Z,5.57
2023-05-16T23:54:03.634Z,5.60
2023-05-16T23:59:05.386Z,4.90
